createdAt,value
2022-09-25T00:00:46.760Z,12.70
2022-09-25T00:03:14.670Z,12.70
2022-09-25T00:05:43.319Z,12.70
2022-09-25T00:08:10.376Z,12.70
2022-09-25T00:10:42.667Z,12.70
2022-09-25T00:13:10.345Z,12.60
2022-09-25T00:15:37.703Z,12.60
2022-09-25T00:18:04.470Z,12.70
2022-09-25T00:20:31.275Z,12.60
2022-09-25T00:22:58.983Z,12.60
2022-09-25T00:25:27.271Z,12.60
2022-09-25T00:27:53.956Z,12.70
2022-09-25T00:30:20.857Z,12.70
2022-09-25T00:32:47.460Z,12.70
2022-09-25T00:35:14.037Z,12.60
2022-09-25T00:37:40.646Z,12.60
2022-09-25T00:40:07.992Z,12.70
2022-09-25T00:42:36.302Z,12.60
2022-09-25T00:45:05.483Z,12.60
2022-09-25T00:47:47.410Z,12.60
2022-09-25T00:50:28.301Z,12.60
2022-09-25T00:53:03.140Z,12.50
2022-09-25T00:55:31.685Z,12.50
2022-09-25T00:58:01.053Z,12.40
2022-09-25T01:00:27.643Z,12.40
2022-09-25T01:02:55.618Z,12.40
2022-09-25T01:05:29.440Z,12.50
2022-09-25T01:07:59.502Z,12.50
2022-09-25T01:10:26.175Z,12.50
2022-09-25T01:12:54.342Z,12.60
2022-09-25T01:15:28.155Z,12.60
2022-09-25T01:17:54.652Z,12.60
2022-09-25T01:20:40.489Z,12.50
2022-09-25T01:23:20.141Z,12.50
2022-09-25T01:25:56.344Z,12.40
2022-09-25T01:28:25.662Z,12.40
2022-09-25T01:31:03.989Z,12.40
2022-09-25T01:33:47.610Z,12.30
2022-09-25T01:36:23.091Z,12.30
2022-09-25T01:39:06.918Z,12.30
2022-09-25T01:41:44.998Z,12.20
2022-09-25T01:44:43.656Z,12.20
2022-09-25T01:47:15.419Z,12.20
2022-09-25T01:49:47.289Z,12.30
2022-09-25T01:52:18.369Z,12.30
2022-09-25T01:54:51.745Z,12.40
2022-09-25T01:57:27.422Z,12.40
2022-09-25T01:59:59.608Z,12.40
2022-09-25T02:02:32.235Z,12.30
2022-09-25T02:05:07.512Z,12.40
2022-09-25T02:07:43.705Z,12.40
2022-09-25T02:10:21.739Z,12.40
2022-09-25T02:12:52.628Z,12.30
2022-09-25T02:15:29.669Z,12.40
2022-09-25T02:18:18.656Z,12.40
2022-09-25T02:20:56.122Z,12.30
2022-09-25T02:23:36.942Z,12.30
2022-09-25T02:26:08.950Z,12.30
2022-09-25T02:28:36.550Z,12.20
2022-09-25T02:31:07.773Z,12.10
2022-09-25T02:33:35.173Z,12.10
2022-09-25T02:36:04.833Z,12.10
2022-09-25T02:38:33.477Z,12.10
2022-09-25T02:41:18.419Z,12.10
2022-09-25T02:43:56.940Z,12.20
2022-09-25T02:47:01.517Z,12.10
2022-09-25T02:49:40.343Z,12.10
2022-09-25T02:52:14.034Z,12.10
2022-09-25T02:54:45.182Z,12.10
2022-09-25T02:57:27.575Z,12.00
2022-09-25T02:59:59.882Z,12.00
2022-09-25T03:02:28.948Z,11.90
2022-09-25T03:04:58.348Z,11.90
2022-09-25T03:07:25.060Z,11.80
2022-09-25T03:09:54.876Z,11.80
2022-09-25T03:12:21.483Z,11.90
2022-09-25T03:14:48.120Z,11.90
2022-09-25T03:17:17.526Z,11.90
2022-09-25T03:19:44.077Z,11.90
2022-09-25T03:22:11.928Z,12.00
2022-09-25T03:24:38.695Z,12.10
2022-09-25T03:27:05.269Z,12.10
2022-09-25T03:29:31.852Z,12.20
2022-09-25T03:31:58.420Z,12.20
2022-09-25T03:34:25.036Z,12.20
2022-09-25T03:36:51.670Z,12.30
2022-09-25T03:39:18.297Z,12.30
2022-09-25T03:41:45.388Z,12.20
2022-09-25T03:44:12.448Z,12.30
2022-09-25T03:46:39.341Z,12.30
2022-09-25T03:49:06.618Z,12.30
2022-09-25T03:51:34.126Z,12.30
2022-09-25T03:54:00.824Z,12.40
2022-09-25T03:56:29.701Z,12.30
2022-09-25T03:58:56.889Z,12.40
2022-09-25T04:01:26.270Z,12.40
2022-09-25T04:03:53.083Z,12.40
2022-09-25T04:06:24.126Z,12.50
2022-09-25T04:08:51.641Z,12.50
2022-09-25T04:11:20.380Z,12.50
2022-09-25T04:13:47.461Z,12.50
2022-09-25T04:16:16.178Z,12.40
2022-09-25T04:18:43.316Z,12.40
2022-09-25T04:21:13.110Z,12.30
2022-09-25T04:23:40.578Z,12.30
2022-09-25T04:26:07.886Z,12.30
2022-09-25T04:28:35.518Z,12.30
2022-09-25T04:31:03.514Z,12.20
2022-09-25T04:33:48.709Z,12.30
2022-09-25T04:36:17.075Z,12.30
2022-09-25T04:38:44.186Z,12.20
2022-09-25T04:41:11.564Z,12.20
2022-09-25T04:43:40.801Z,12.30
2022-09-25T04:46:12.453Z,12.20
2022-09-25T04:48:44.665Z,12.20
2022-09-25T04:51:11.242Z,12.20
2022-09-25T04:53:38.403Z,12.20
2022-09-25T04:56:12.274Z,12.20
2022-09-25T04:58:45.132Z,12.10
2022-09-25T05:01:11.739Z,12.10
2022-09-25T05:03:38.475Z,12.00
2022-09-25T05:06:05.188Z,12.00
2022-09-25T05:08:31.751Z,12.00
2022-09-25T05:10:58.309Z,11.90
2022-09-25T05:13:24.933Z,11.90
2022-09-25T05:15:51.562Z,12.00
2022-09-25T05:18:23.460Z,11.90
2022-09-25T05:20:51.301Z,11.80
2022-09-25T05:23:18.214Z,11.80
2022-09-25T05:25:51.076Z,11.80
2022-09-25T05:28:17.922Z,11.80
2022-09-25T05:30:44.719Z,11.80
2022-09-25T05:33:11.293Z,11.80
2022-09-25T05:35:37.853Z,11.90
2022-09-25T05:38:06.537Z,12.00
2022-09-25T05:40:33.124Z,12.10
2022-09-25T05:43:00.390Z,12.10
2022-09-25T05:45:26.954Z,12.10
2022-09-25T05:48:19.584Z,12.20
2022-09-25T05:50:51.530Z,12.30
2022-09-25T05:53:18.126Z,12.30
2022-09-25T05:55:58.151Z,12.40
2022-09-25T05:58:26.209Z,12.40
2022-09-25T06:00:52.814Z,12.30
2022-09-25T06:03:20.388Z,12.40
2022-09-25T06:05:47.384Z,12.40
2022-09-25T06:08:14.981Z,12.40
2022-09-25T06:10:42.032Z,12.50
2022-09-25T06:13:08.971Z,12.60
2022-09-25T06:15:37.768Z,12.60
2022-09-25T06:18:05.519Z,12.60
2022-09-25T06:20:32.470Z,12.60
2022-09-25T06:23:00.618Z,12.60
2022-09-25T06:25:30.264Z,12.60
2022-09-25T06:27:58.013Z,12.60
2022-09-25T06:30:27.405Z,12.70
2022-09-25T06:33:01.223Z,12.70
2022-09-25T06:35:31.522Z,12.60
2022-09-25T06:37:59.368Z,12.60
2022-09-25T06:40:31.134Z,12.50
2022-09-25T06:42:59.173Z,12.50
2022-09-25T06:45:26.965Z,12.40
2022-09-25T06:47:57.686Z,12.40
2022-09-25T06:50:29.894Z,12.40
2022-09-25T06:52:56.447Z,12.40
2022-09-25T06:55:23.377Z,12.40
2022-09-25T06:57:49.916Z,12.40
2022-09-25T07:00:16.597Z,12.40
2022-09-25T07:03:02.004Z,12.40
2022-09-25T07:05:28.629Z,12.40
2022-09-25T07:07:55.792Z,12.40
2022-09-25T07:10:22.950Z,12.40
2022-09-25T07:12:49.620Z,12.50
2022-09-25T07:15:16.311Z,12.60
2022-09-25T07:17:43.648Z,12.70
2022-09-25T07:20:14.015Z,12.70
2022-09-25T07:22:41.930Z,12.70
2022-09-25T07:25:10.073Z,12.80
2022-09-25T07:27:36.996Z,12.80
2022-09-25T07:30:05.894Z,12.80
2022-09-25T07:32:32.548Z,12.80
2022-09-25T07:34:59.108Z,12.80
2022-09-25T07:37:25.735Z,12.80
2022-09-25T07:39:52.333Z,12.80
2022-09-25T07:42:19.157Z,12.70
2022-09-25T07:44:48.687Z,12.70
2022-09-25T07:47:16.901Z,12.80
2022-09-25T07:49:43.472Z,12.80
2022-09-25T07:52:10.034Z,12.90
2022-09-25T07:54:37.665Z,13.00
2022-09-25T07:57:04.225Z,13.00
2022-09-25T07:59:30.796Z,13.10
2022-09-25T08:01:58.185Z,13.10
2022-09-25T08:04:24.932Z,13.10
2022-09-25T08:06:51.546Z,13.10
2022-09-25T08:09:18.111Z,13.10
2022-09-25T08:11:44.745Z,13.10
2022-09-25T08:14:14.306Z,13.20
2022-09-25T08:16:41.175Z,13.30
2022-09-25T08:19:07.732Z,13.30
2022-09-25T08:21:34.652Z,13.40
2022-09-25T08:24:01.577Z,13.40
2022-09-25T08:26:29.211Z,13.40
2022-09-25T08:28:56.733Z,13.40
2022-09-25T08:31:23.427Z,13.50
2022-09-25T08:33:50.530Z,13.50
2022-09-25T08:36:17.893Z,13.50
2022-09-25T08:38:45.363Z,13.50
2022-09-25T08:41:21.504Z,13.60
2022-09-25T08:43:58.596Z,13.70
2022-09-25T08:46:55.489Z,13.70
2022-09-25T08:49:26.224Z,13.70
2022-09-25T08:51:58.592Z,13.70
2022-09-25T08:54:27.703Z,13.60
2022-09-25T08:56:59.683Z,13.70
2022-09-25T08:59:34.026Z,13.60
2022-09-25T09:02:03.997Z,13.60
2022-09-25T09:04:41.669Z,13.60
2022-09-25T09:07:29.173Z,13.60
2022-09-25T09:10:03.283Z,13.60
2022-09-25T09:12:43.888Z,13.70
2022-09-25T09:15:22.645Z,13.70
2022-09-25T09:17:49.249Z,13.70
2022-09-25T09:20:31.294Z,13.80
2022-09-25T09:22:58.787Z,13.80
2022-09-25T09:25:29.038Z,13.80
2022-09-25T09:28:33.042Z,13.80
2022-09-25T09:31:13.770Z,13.80
2022-09-25T09:35:04.181Z,13.80
2022-09-25T09:37:51.182Z,13.80
2022-09-25T09:40:34.351Z,13.80
2022-09-25T09:43:43.028Z,13.90
2022-09-25T09:46:15.861Z,13.90
2022-09-25T09:49:09.643Z,13.90
2022-09-25T09:51:48.537Z,13.90
2022-09-25T09:54:42.465Z,13.90
2022-09-25T09:57:34.215Z,13.90
2022-09-25T10:00:14.890Z,13.90
2022-09-25T10:03:02.780Z,13.90
2022-09-25T10:05:49.694Z,13.90
2022-09-25T10:08:17.240Z,13.90
2022-09-25T10:10:47.825Z,13.90
2022-09-25T10:13:26.817Z,14.00
2022-09-25T10:16:11.265Z,14.00
2022-09-25T10:19:01.019Z,14.00
2022-09-25T10:21:32.873Z,14.10
2022-09-25T10:23:59.691Z,14.10
2022-09-25T10:26:37.829Z,14.10
2022-09-25T10:29:19.385Z,14.10
2022-09-25T10:31:46.361Z,14.10
2022-09-25T10:34:13.079Z,14.10
2022-09-25T10:36:44.070Z,14.10
2022-09-25T10:39:44.670Z,14.10
2022-09-25T10:42:41.181Z,14.10
2022-09-25T10:45:30.794Z,14.20
2022-09-25T10:48:15.930Z,14.20
2022-09-25T10:50:42.916Z,14.30
2022-09-25T10:53:32.517Z,14.30
2022-09-25T10:56:06.289Z,14.30
2022-09-25T10:58:41.718Z,14.40
2022-09-25T11:01:13.597Z,14.40
2022-09-25T11:03:45.700Z,14.40
2022-09-25T11:06:29.192Z,14.40
2022-09-25T11:09:16.102Z,14.50
2022-09-25T11:11:46.865Z,14.60
2022-09-25T11:14:20.248Z,14.60
2022-09-25T11:16:53.122Z,14.60
2022-09-25T11:19:19.769Z,14.70
2022-09-25T11:21:59.886Z,14.70
2022-09-25T11:24:41.394Z,14.80
2022-09-25T11:27:43.627Z,14.90
2022-09-25T11:30:16.396Z,14.90
2022-09-25T11:33:34.212Z,14.90
2022-09-25T11:36:18.642Z,14.90
2022-09-25T11:39:09.174Z,15.00
2022-09-25T11:41:47.714Z,15.00
2022-09-25T11:44:44.265Z,15.10
2022-09-25T11:47:24.098Z,15.20
2022-09-25T11:49:53.283Z,15.20
2022-09-25T11:52:30.353Z,15.20
2022-09-25T11:55:16.681Z,15.20
2022-09-25T11:58:20.644Z,15.20
2022-09-25T12:01:01.724Z,15.20
2022-09-25T12:03:33.924Z,15.20
2022-09-25T12:06:27.159Z,15.20
2022-09-25T12:09:15.321Z,15.20
2022-09-25T12:12:09.080Z,15.20
2022-09-25T12:14:55.637Z,15.30
2022-09-25T12:17:26.873Z,15.30
2022-09-25T12:20:18.366Z,15.30
2022-09-25T12:22:51.588Z,15.30
2022-09-25T12:25:49.384Z,15.40
2022-09-25T12:28:41.968Z,15.50
2022-09-25T12:31:53.405Z,15.50
2022-09-25T12:34:46.037Z,15.60
2022-09-25T12:37:43.388Z,15.60
2022-09-25T12:40:16.852Z,15.70
2022-09-25T12:42:52.526Z,15.70
2022-09-25T12:45:55.651Z,15.80
2022-09-25T12:48:44.393Z,15.70
2022-09-25T12:51:40.374Z,15.70
2022-09-25T12:54:15.457Z,15.70
2022-09-25T12:56:52.836Z,15.70
2022-09-25T12:59:21.516Z,15.70
2022-09-25T13:02:09.944Z,15.70
2022-09-25T13:05:01.466Z,15.70
2022-09-25T13:08:09.485Z,15.70
2022-09-25T13:10:50.282Z,15.70
2022-09-25T13:13:20.013Z,15.80
2022-09-25T13:15:54.498Z,15.70
2022-09-25T13:18:23.522Z,15.80
2022-09-25T13:20:54.237Z,15.70
2022-09-25T13:23:29.629Z,15.70
2022-09-25T13:26:02.637Z,15.70
2022-09-25T13:28:41.688Z,15.80
2022-09-25T13:31:13.581Z,15.90
2022-09-25T13:33:49.916Z,15.90
2022-09-25T13:36:23.416Z,15.90
2022-09-25T13:39:16.553Z,15.90
2022-09-25T13:41:58.595Z,16.00
2022-09-25T13:44:43.573Z,16.00
2022-09-25T13:47:25.108Z,16.00
2022-09-25T13:50:10.560Z,16.00
2022-09-25T13:52:40.146Z,16.10
2022-09-25T13:55:22.020Z,16.10
2022-09-25T13:58:01.332Z,16.10
2022-09-25T14:00:53.595Z,16.10
2022-09-25T14:03:49.949Z,16.20
2022-09-25T14:06:19.320Z,16.10
2022-09-25T14:08:47.266Z,16.00
2022-09-25T14:11:18.851Z,16.10
2022-09-25T14:13:49.730Z,16.00
2022-09-25T14:16:27.933Z,16.00
2022-09-25T14:19:01.421Z,16.00
2022-09-25T14:21:29.501Z,16.00
2022-09-25T14:24:11.534Z,16.00
2022-09-25T14:26:44.696Z,16.00
2022-09-25T14:29:22.226Z,16.00
2022-09-25T14:32:07.049Z,16.00
2022-09-25T14:35:01.328Z,16.00
2022-09-25T14:37:39.491Z,15.90
2022-09-25T14:40:33.852Z,15.90
2022-09-25T14:43:07.327Z,15.90
2022-09-25T14:45:39.676Z,15.80
2022-09-25T14:48:13.067Z,15.80
2022-09-25T14:51:02.576Z,15.80
2022-09-25T14:53:38.270Z,15.80
2022-09-25T14:56:11.736Z,15.70
2022-09-25T14:58:44.541Z,15.60
2022-09-25T15:01:27.859Z,15.60
2022-09-25T15:03:58.623Z,15.60
2022-09-25T15:06:36.242Z,15.60
2022-09-25T15:09:18.301Z,15.50
2022-09-25T15:11:45.045Z,15.60
2022-09-25T15:14:16.943Z,15.60
2022-09-25T15:17:02.840Z,15.60
2022-09-25T15:19:34.672Z,15.60
2022-09-25T15:22:01.699Z,15.60
2022-09-25T15:24:34.669Z,15.60
2022-09-25T15:27:06.180Z,15.60
2022-09-25T15:29:38.071Z,15.60
2022-09-25T15:32:05.760Z,15.60
2022-09-25T15:34:33.769Z,15.60
2022-09-25T15:37:29.127Z,15.60
2022-09-25T15:39:56.468Z,15.60
2022-09-25T15:42:23.111Z,15.60
2022-09-25T15:44:49.928Z,15.60
2022-09-25T15:47:34.693Z,15.60
2022-09-25T15:50:03.683Z,15.60
2022-09-25T15:52:34.564Z,15.60
2022-09-25T15:55:06.349Z,15.60
2022-09-25T15:57:33.730Z,15.60
2022-09-25T16:00:25.366Z,15.60
2022-09-25T16:03:39.778Z,15.60
2022-09-25T16:06:07.160Z,15.60
2022-09-25T16:08:36.569Z,15.70
2022-09-25T16:11:23.930Z,15.60
2022-09-25T16:14:14.489Z,15.60
2022-09-25T16:16:47.379Z,15.60
2022-09-25T16:19:34.143Z,15.50
2022-09-25T16:22:23.206Z,15.50
2022-09-25T16:24:54.718Z,15.50
2022-09-25T16:27:34.035Z,15.40
2022-09-25T16:30:04.343Z,15.30
2022-09-25T16:32:32.157Z,15.20
2022-09-25T16:35:03.420Z,15.10
2022-09-25T16:37:33.531Z,15.20
2022-09-25T16:40:09.931Z,15.10
2022-09-25T16:42:42.224Z,15.10
2022-09-25T16:45:33.169Z,15.10
2022-09-25T16:48:36.923Z,15.20
2022-09-25T16:51:09.799Z,15.20
2022-09-25T16:53:36.786Z,15.20
2022-09-25T16:56:03.874Z,15.20
2022-09-25T16:58:30.431Z,15.20
2022-09-25T17:00:58.656Z,15.20
2022-09-25T17:03:25.295Z,15.10
2022-09-25T17:05:51.917Z,15.00
2022-09-25T17:08:21.300Z,15.00
2022-09-25T17:10:50.971Z,14.90
2022-09-25T17:13:23.008Z,14.90
2022-09-25T17:15:49.639Z,14.90
2022-09-25T17:18:21.078Z,15.00
2022-09-25T17:20:52.676Z,15.00
2022-09-25T17:23:21.280Z,15.10
2022-09-25T17:26:26.132Z,15.10
2022-09-25T17:28:52.753Z,15.10
2022-09-25T17:31:21.231Z,15.10
2022-09-25T17:33:51.855Z,15.10
2022-09-25T17:36:18.812Z,15.10
2022-09-25T17:38:45.608Z,15.10
2022-09-25T17:41:23.932Z,15.10
2022-09-25T17:43:50.565Z,15.10
2022-09-25T17:46:18.904Z,15.10
2022-09-25T17:48:47.899Z,15.10
2022-09-25T17:51:20.828Z,15.10
2022-09-25T17:53:52.583Z,15.00
2022-09-25T17:56:19.805Z,15.00
2022-09-25T17:58:46.545Z,15.00
2022-09-25T18:01:21.892Z,14.90
2022-09-25T18:03:56.493Z,15.00
2022-09-25T18:06:24.468Z,15.00
2022-09-25T18:08:52.596Z,15.00
2022-09-25T18:11:19.495Z,14.90
2022-09-25T18:13:46.502Z,14.80
2022-09-25T18:16:20.189Z,14.90
2022-09-25T18:19:05.852Z,14.90
2022-09-25T18:21:51.009Z,14.80
2022-09-25T18:24:18.147Z,14.80
2022-09-25T18:26:45.498Z,14.80
2022-09-25T18:29:16.833Z,14.70
2022-09-25T18:31:44.763Z,14.80
2022-09-25T18:34:11.473Z,14.70
2022-09-25T18:36:38.090Z,14.70
2022-09-25T18:39:05.303Z,14.60
2022-09-25T18:41:35.401Z,14.60
2022-09-25T18:44:02.310Z,14.50
2022-09-25T18:46:29.041Z,14.50
2022-09-25T18:48:57.589Z,14.50
2022-09-25T18:51:24.250Z,14.40
2022-09-25T18:53:54.656Z,14.40
2022-09-25T18:56:21.544Z,14.30
2022-09-25T18:58:49.578Z,14.30
2022-09-25T19:01:16.429Z,14.30
2022-09-25T19:03:43.119Z,14.30
2022-09-25T19:06:10.067Z,14.10
2022-09-25T19:08:36.980Z,14.10
2022-09-25T19:11:11.307Z,13.90
2022-09-25T19:13:37.861Z,13.90
2022-09-25T19:16:07.703Z,13.60
2022-09-25T19:18:34.614Z,13.50
2022-09-25T19:21:01.703Z,13.50
2022-09-25T19:23:28.297Z,13.50
2022-09-25T19:25:58.903Z,13.60
2022-09-25T19:28:26.627Z,13.60
2022-09-25T19:31:00.106Z,13.40
2022-09-25T19:33:29.900Z,13.30
2022-09-25T19:35:58.563Z,13.20
2022-09-25T19:38:25.220Z,13.20
2022-09-25T19:40:51.983Z,13.10
2022-09-25T19:43:18.692Z,13.00
2022-09-25T19:45:53.639Z,13.00
2022-09-25T19:48:22.310Z,13.00
2022-09-25T19:50:49.574Z,13.00
2022-09-25T19:53:18.967Z,13.00
2022-09-25T19:55:52.870Z,13.00
2022-09-25T19:58:23.111Z,12.90
2022-09-25T20:00:50.640Z,13.00
2022-09-25T20:03:17.951Z,13.00
2022-09-25T20:05:45.298Z,13.00
2022-09-25T20:08:12.932Z,13.00
2022-09-25T20:10:39.591Z,13.10
2022-09-25T20:13:06.213Z,13.10
2022-09-25T20:15:33.809Z,13.20
2022-09-25T20:18:01.237Z,13.20
2022-09-25T20:20:29.484Z,13.20
2022-09-25T20:22:56.970Z,13.30
2022-09-25T20:25:26.524Z,13.20
2022-09-25T20:27:53.420Z,13.30
2022-09-25T20:30:20.553Z,13.30
2022-09-25T20:32:47.240Z,13.30
2022-09-25T20:35:14.045Z,13.40
2022-09-25T20:37:40.622Z,13.40
2022-09-25T20:40:07.492Z,13.40
2022-09-25T20:42:34.045Z,13.40
2022-09-25T20:45:00.616Z,13.40
2022-09-25T20:47:33.362Z,13.30
2022-09-25T20:50:00.683Z,13.30
2022-09-25T20:52:27.924Z,13.30
2022-09-25T20:54:56.373Z,13.30
2022-09-25T20:57:22.983Z,13.30
2022-09-25T20:59:49.619Z,13.30
2022-09-25T21:02:16.569Z,13.40
2022-09-25T21:04:44.819Z,13.30
2022-09-25T21:07:15.992Z,13.30
2022-09-25T21:09:43.624Z,13.30
2022-09-25T21:12:10.217Z,13.20
2022-09-25T21:14:37.051Z,13.20
2022-09-25T21:17:04.137Z,13.10
2022-09-25T21:19:31.701Z,13.10
2022-09-25T21:21:58.368Z,13.10
2022-09-25T21:24:24.922Z,13.00
2022-09-25T21:26:51.568Z,13.00
2022-09-25T21:29:18.392Z,12.90
2022-09-25T21:31:49.903Z,12.70
2022-09-25T21:34:17.876Z,12.70
2022-09-25T21:36:45.450Z,12.70
2022-09-25T21:39:12.354Z,12.60
2022-09-25T21:41:39.086Z,12.60
2022-09-25T21:44:09.636Z,12.50
2022-09-25T21:46:36.243Z,12.50
2022-09-25T21:49:05.673Z,12.50
2022-09-25T21:51:36.062Z,12.50
2022-09-25T21:54:03.170Z,12.50
2022-09-25T21:56:31.653Z,12.60
2022-09-25T21:59:05.626Z,12.50
2022-09-25T22:01:35.899Z,12.50
2022-09-25T22:04:04.269Z,12.50
2022-09-25T22:06:36.947Z,12.50
2022-09-25T22:09:09.453Z,12.50
2022-09-25T22:11:37.155Z,12.40
2022-09-25T22:14:04.657Z,12.40
2022-09-25T22:16:34.211Z,12.40
2022-09-25T22:19:13.715Z,12.50
2022-09-25T22:21:41.770Z,12.50
2022-09-25T22:24:09.030Z,12.40
2022-09-25T22:26:37.686Z,12.40
2022-09-25T22:29:05.450Z,12.40
2022-09-25T22:31:33.940Z,12.40
2022-09-25T22:34:05.749Z,12.40
2022-09-25T22:36:33.589Z,12.40
2022-09-25T22:39:00.148Z,12.50
2022-09-25T22:41:26.698Z,12.50
2022-09-25T22:43:54.576Z,12.50
2022-09-25T22:46:23.574Z,12.50
2022-09-25T22:48:51.109Z,12.50
2022-09-25T22:51:22.970Z,12.60
2022-09-25T22:53:50.518Z,12.60
2022-09-25T22:56:34.272Z,12.50
2022-09-25T22:59:03.866Z,12.50
2022-09-25T23:01:40.205Z,12.50
2022-09-25T23:04:11.682Z,12.50
2022-09-25T23:06:38.734Z,12.60
2022-09-25T23:09:11.045Z,12.60
2022-09-25T23:11:37.940Z,12.50
2022-09-25T23:14:07.955Z,12.50
2022-09-25T23:16:35.313Z,12.60
2022-09-25T23:19:02.896Z,12.50
2022-09-25T23:21:30.932Z,12.60
2022-09-25T23:23:59.561Z,12.60
2022-09-25T23:26:27.055Z,12.70
2022-09-25T23:28:53.722Z,12.70
2022-09-25T23:31:21.357Z,12.70
2022-09-25T23:33:48.328Z,12.70
2022-09-25T23:36:20.265Z,12.70
2022-09-25T23:38:48.241Z,12.80
2022-09-25T23:41:25.379Z,12.80
2022-09-25T23:43:53.784Z,12.70
2022-09-25T23:46:22.895Z,12.70
2022-09-25T23:48:50.582Z,12.70
2022-09-25T23:51:18.420Z,12.60
2022-09-25T23:53:46.060Z,12.60
2022-09-25T23:56:19.516Z,12.50
2022-09-25T23:58:46.783Z,12.50
